Parlin, CO (81239)

1:54 AM MST on March 01, 2015 (GMT -0700)
APRSWXNET Pitkin CO US | Change Station
CLOSE
Current Station
Personal Weather Station
Location: Pitkin, CO
Elevation: 9271 ft
Nearby Weather Stations
Active Advisory: Winter Weather Advisory

Elev 9271 ft 38.61 °N, 106.51 °W | Updated 31 minutes ago

Snow
Snow
21 °F
Feels Like 21 °F
N
0
Wind Variable Wind from East
Gusts 3.0 mph

Today
High -- | Low -- °F
--% Chance of Precip.
Yesterday
High -- | Low -- °F
Precip. -- in
6:38 AM 5:59 PM
Waxing Gibbous, 83% visible
Pressure 30.00 in
Visibility 10.0 miles
Clouds Few 3900 ft
Few 4600 ft
Windchill 21 °F
Dew Point 18 °F
Humidity 88%
Rainfall 0.00 in
Snow Depth Not available.
UV 0 out of 12
Pollen 1.30 out of 12
Air Quality Not available.
Flu Activity Not available.
METAR KGUC 010835Z 01003KT 10SM FEW039 FEW046 M06/M08 A3000 RMK AO1

More Conditions Fewer Conditions

Pressure 30.00 in
Visibility 10.0 miles
Clouds Few 3900 ft
Few 4600 ft
Windchill 21 °F
Dew Point 18 °F
Humidity 88%
Rainfall 0.00 in
Snow Depth Not available.
UV 0 out of 12
Pollen 1.30 out of 12
Air Quality Not available.
Flu Activity Not available.
METAR KGUC 010835Z 01003KT 10SM FEW039 FEW046 M06/M08 A3000 RMK AO1

More Conditions Fewer Conditions

10-Day Weather Forecast

Almanac

Astronomy

Mar. 01, 2015 Rise Set
Actual Time
Civil Twilight
Nautical Twilight
Astronomical Twilight
Moon
Length of Visible Light
Length of Day
Tomorrow will be .
, % of the Moon is Illuminated

Today's Extremes

State Highs State Lows

Community

WunderPhotos

Upload Photos

1,801,350 photos uploaded!

WunderBlogs® & News

Nearby

Air Quality

  Air Quality AQ Index Pollutant
Not available.

Snow Depth

Station Depth Elevation

Earthquake Activity

City Distance Mag. Time & Date
Minimum magnitude displayed is 2.5.

Coastal Water Temperatures

Place Temperature

Nearby Weather Stations

Winter Weather Advisory
Statement as of 7:50 PM MST on February 28, 2015

... Winter Weather Advisory remains in effect until 8 PM MST
Monday...

* locations include the cities of... Gunnison... Cimarron.

* Timing... periods of snow will continue through Monday evening.
Lulls in the activity are also be expected.

* Snow accumulation... 2 to 4 inches expected each day. Storm
total of 8 to 14 expected by Monday night... lesser amounts in
Gunnison and highest amounts near Blue Mesa and Cerro Summit.

* Winds... southwest 10 to 20 mph over Cerro and Blue Mesa
summits at times.

* Visibility... restricted at times in heavy snow.

* Impacts... travel is expected to become difficult this weekend
into early next week.

Precautionary/preparedness actions...

A Winter Weather Advisory means that periods of snow and/or
blowing snow will cause travel difficulties. Be prepared for
slippery roads and limited visibilities... and use caution while
driving.